sensor_id;sensor_type;location;lat;lon;timestamp;P1;durP1;ratioP1;P2;durP2;ratioP2
33840;SDS011;20142;28.494;-16.312;2023-04-03T00:00:43;33.78;;;4.72;;
33840;SDS011;20142;28.494;-16.312;2023-04-03T00:05:45;27.17;;;4.32;;
33840;SDS011;20142;28.494;-16.312;2023-04-03T00:10:47;27.20;;;4.47;;
33840;SDS011;20142;28.494;-16.312;2023-04-03T00:15:49;30.38;;;4.20;;
33840;SDS011;20142;28.494;-16.312;2023-04-03T00:20:51;30.17;;;4.03;;
33840;SDS011;20142;28.494;-16.312;2023-04-03T00:25:53;30.13;;;4.15;;
33840;SDS011;20142;28.494;-16.312;2023-04-03T00:30:55;31.02;;;4.78;;
33840;SDS011;20142;28.494;-16.312;2023-04-03T00:35:57;29.27;;;3.97;;
33840;SDS011;20142;28.494;-16.312;2023-04-03T00:40:59;29.17;;;4.20;;
33840;SDS011;20142;28.494;-16.312;2023-04-03T00:46:01;27.27;;;3.65;;
33840;SDS011;20142;28.494;-16.312;2023-04-03T00:51:03;30.98;;;4.13;;
33840;SDS011;20142;28.494;-16.312;2023-04-03T00:56:08;28.90;;;4.25;;
33840;SDS011;20142;28.494;-16.312;2023-04-03T01:01:15;28.40;;;4.20;;
33840;SDS011;20142;28.494;-16.312;2023-04-03T01:06:24;24.73;;;3.40;;
33840;SDS011;20142;28.494;-16.312;2023-04-03T01:11:32;24.67;;;3.45;;
33840;SDS011;20142;28.494;-16.312;2023-04-03T01:16:34;28.70;;;4.00;;
33840;SDS011;20142;28.494;-16.312;2023-04-03T01:27:03;23.77;;;3.95;;
33840;SDS011;20142;28.494;-16.312;2023-04-03T01:32:06;27.08;;;4.82;;
33840;SDS011;20142;28.494;-16.312;2023-04-03T01:37:08;28.30;;;4.07;;
33840;SDS011;20142;28.494;-16.312;2023-04-03T01:42:10;24.35;;;3.83;;
33840;SDS011;20142;28.494;-16.312;2023-04-03T01:47:12;22.63;;;3.90;;
33840;SDS011;20142;28.494;-16.312;2023-04-03T01:52:14;24.02;;;4.85;;
33840;SDS011;20142;28.494;-16.312;2023-04-03T01:57:16;30.27;;;4.05;;
33840;SDS011;20142;28.494;-16.312;2023-04-03T02:02:17;18.80;;;3.05;;
33840;SDS011;20142;28.494;-16.312;2023-04-03T02:07:20;24.80;;;4.43;;
33840;SDS011;20142;28.494;-16.312;2023-04-03T02:12:22;17.63;;;3.15;;
33840;SDS011;20142;28.494;-16.312;2023-04-03T02:17:27;14.00;;;3.03;;
33840;SDS011;20142;28.494;-16.312;2023-04-03T02:22:28;18.75;;;3.55;;
33840;SDS011;20142;28.494;-16.312;2023-04-03T02:27:30;19.00;;;3.30;;
33840;SDS011;20142;28.494;-16.312;2023-04-03T02:32:32;24.58;;;3.83;;
33840;SDS011;20142;28.494;-16.312;2023-04-03T02:37:34;21.00;;;3.22;;
33840;SDS011;20142;28.494;-16.312;2023-04-03T02:42:36;17.55;;;3.10;;
33840;SDS011;20142;28.494;-16.312;2023-04-03T02:47:38;18.17;;;3.35;;
33840;SDS011;20142;28.494;-16.312;2023-04-03T02:52:39;15.40;;;2.90;;
33840;SDS011;20142;28.494;-16.312;2023-04-03T02:57:41;15.23;;;2.83;;
33840;SDS011;20142;28.494;-16.312;2023-04-03T03:02:43;19.40;;;3.25;;
33840;SDS011;20142;28.494;-16.312;2023-04-03T03:07:44;21.65;;;3.58;;
33840;SDS011;20142;28.494;-16.312;2023-04-03T03:12:46;14.10;;;2.78;;
33840;SDS011;20142;28.494;-16.312;2023-04-03T03:17:48;20.42;;;3.30;;
33840;SDS011;20142;28.494;-16.312;2023-04-03T03:22:50;23.35;;;4.20;;
33840;SDS011;20142;28.494;-16.312;2023-04-03T03:27:51;19.77;;;3.65;;
33840;SDS011;20142;28.494;-16.312;2023-04-03T03:32:53;22.20;;;3.33;;
33840;SDS011;20142;28.494;-16.312;2023-04-03T03:37:55;26.85;;;4.03;;
33840;SDS011;20142;28.494;-16.312;2023-04-03T03:42:56;20.92;;;3.50;;
33840;SDS011;20142;28.494;-16.312;2023-04-03T03:47:58;31.25;;;4.50;;
33840;SDS011;20142;28.494;-16.312;2023-04-03T03:53:00;21.25;;;4.05;;
33840;SDS011;20142;28.494;-16.312;2023-04-03T03:58:01;17.48;;;3.80;;
33840;SDS011;20142;28.494;-16.312;2023-04-03T04:03:04;25.08;;;4.45;;
33840;SDS011;20142;28.494;-16.312;2023-04-03T04:08:05;20.60;;;3.47;;
33840;SDS011;20142;28.494;-16.312;2023-04-03T04:13:07;21.88;;;3.28;;
33840;SDS011;20142;28.494;-16.312;2023-04-03T04:18:09;16.95;;;3.42;;
33840;SDS011;20142;28.494;-16.312;2023-04-03T04:23:10;24.77;;;3.60;;
33840;SDS011;20142;28.494;-16.312;2023-04-03T04:28:12;25.55;;;3.90;;
33840;SDS011;20142;28.494;-16.312;2023-04-03T04:33:14;26.48;;;4.22;;
33840;SDS011;20142;28.494;-16.312;2023-04-03T04:38:17;26.77;;;4.15;;
33840;SDS011;20142;28.494;-16.312;2023-04-03T04:43:18;16.95;;;3.30;;
33840;SDS011;20142;28.494;-16.312;2023-04-03T04:48:20;25.13;;;3.53;;
33840;SDS011;20142;28.494;-16.312;2023-04-03T04:53:22;20.85;;;4.07;;
33840;SDS011;20142;28.494;-16.312;2023-04-03T04:58:23;29.88;;;3.63;;
33840;SDS011;20142;28.494;-16.312;2023-04-03T05:03:26;21.55;;;3.28;;
33840;SDS011;20142;28.494;-16.312;2023-04-03T05:08:27;25.80;;;4.10;;
33840;SDS011;20142;28.494;-16.312;2023-04-03T05:13:30;33.05;;;4.43;;
33840;SDS011;20142;28.494;-16.312;2023-04-03T05:18:32;30.33;;;3.63;;
33840;SDS011;20142;28.494;-16.312;2023-04-03T05:23:33;32.15;;;4.38;;
33840;SDS011;20142;28.494;-16.312;2023-04-03T05:28:35;24.83;;;4.43;;
33840;SDS011;20142;28.494;-16.312;2023-04-03T05:33:37;27.80;;;3.45;;
33840;SDS011;20142;28.494;-16.312;2023-04-03T05:38:38;36.70;;;4.55;;
33840;SDS011;20142;28.494;-16.312;2023-04-03T05:43:40;21.65;;;3.42;;
33840;SDS011;20142;28.494;-16.312;2023-04-03T05:48:42;32.08;;;3.78;;
33840;SDS011;20142;28.494;-16.312;2023-04-03T05:53:45;26.50;;;3.45;;
33840;SDS011;20142;28.494;-16.312;2023-04-03T05:58:47;23.88;;;3.40;;
33840;SDS011;20142;28.494;-16.312;2023-04-03T06:03:49;23.33;;;3.60;;
33840;SDS011;20142;28.494;-16.312;2023-04-03T06:08:51;23.95;;;4.15;;
33840;SDS011;20142;28.494;-16.312;2023-04-03T06:13:53;17.08;;;3.33;;
33840;SDS011;20142;28.494;-16.312;2023-04-03T06:18:56;22.17;;;3.63;;
33840;SDS011;20142;28.494;-16.312;2023-04-03T06:24:04;17.02;;;3.40;;
33840;SDS011;20142;28.494;-16.312;2023-04-03T06:29:07;17.88;;;3.10;;
33840;SDS011;20142;28.494;-16.312;2023-04-03T06:34:09;18.95;;;3.30;;
33840;SDS011;20142;28.494;-16.312;2023-04-03T06:39:15;18.40;;;2.72;;
33840;SDS011;20142;28.494;-16.312;2023-04-03T06:44:21;17.15;;;3.25;;
33840;SDS011;20142;28.494;-16.312;2023-04-03T06:49:23;22.33;;;2.85;;
33840;SDS011;20142;28.494;-16.312;2023-04-03T06:54:24;18.67;;;3.10;;
33840;SDS011;20142;28.494;-16.312;2023-04-03T06:59:26;18.00;;;3.17;;
33840;SDS011;20142;28.494;-16.312;2023-04-03T07:04:28;14.18;;;2.63;;
33840;SDS011;20142;28.494;-16.312;2023-04-03T07:09:30;14.45;;;2.72;;
33840;SDS011;20142;28.494;-16.312;2023-04-03T07:14:32;18.33;;;2.95;;
33840;SDS011;20142;28.494;-16.312;2023-04-03T07:19:34;18.30;;;2.58;;
33840;SDS011;20142;28.494;-16.312;2023-04-03T07:24:36;23.05;;;3.25;;
33840;SDS011;20142;28.494;-16.312;2023-04-03T07:29:37;24.73;;;3.38;;
33840;SDS011;20142;28.494;-16.312;2023-04-03T07:34:39;19.70;;;2.58;;
33840;SDS011;20142;28.494;-16.312;2023-04-03T07:39:43;15.30;;;2.78;;
33840;SDS011;20142;28.494;-16.312;2023-04-03T07:44:45;18.40;;;2.55;;
33840;SDS011;20142;28.494;-16.312;2023-04-03T07:49:48;15.02;;;3.15;;
33840;SDS011;20142;28.494;-16.312;2023-04-03T07:54:49;24.52;;;3.33;;
33840;SDS011;20142;28.494;-16.312;2023-04-03T07:59:51;27.35;;;3.88;;
33840;SDS011;20142;28.494;-16.312;2023-04-03T08:04:53;26.55;;;3.20;;
33840;SDS011;20142;28.494;-16.312;2023-04-03T08:09:54;21.67;;;2.92;;
33840;SDS011;20142;28.494;-16.312;2023-04-03T08:14:56;20.83;;;2.53;;
33840;SDS011;20142;28.494;-16.312;2023-04-03T08:20:00;14.75;;;2.53;;
33840;SDS011;20142;28.494;-16.312;2023-04-03T08:25:03;22.75;;;2.75;;
33840;SDS011;20142;28.494;-16.312;2023-04-03T08:30:06;26.52;;;3.30;;
33840;SDS011;20142;28.494;-16.312;2023-04-03T08:35:09;17.30;;;2.55;;
33840;SDS011;20142;28.494;-16.312;2023-04-03T08:40:15;20.55;;;2.60;;
33840;SDS011;20142;28.494;-16.312;2023-04-03T08:50:57;24.25;;;2.90;;
33840;SDS011;20142;28.494;-16.312;2023-04-03T08:56:07;17.40;;;2.20;;
33840;SDS011;20142;28.494;-16.312;2023-04-03T09:01:29;12.90;;;2.00;;
33840;SDS011;20142;28.494;-16.312;2023-04-03T09:06:38;17.83;;;2.00;;
33840;SDS011;20142;28.494;-16.312;2023-04-03T09:11:51;19.25;;;1.98;;
33840;SDS011;20142;28.494;-16.312;2023-04-03T09:17:17;14.07;;;1.83;;
33840;SDS011;20142;28.494;-16.312;2023-04-03T09:22:35;10.45;;;2.25;;
33840;SDS011;20142;28.494;-16.312;2023-04-03T09:27:43;8.25;;;1.23;;
33840;SDS011;20142;28.494;-16.312;2023-04-03T09:32:46;11.00;;;1.67;;
33840;SDS011;20142;28.494;-16.312;2023-04-03T09:38:16;9.27;;;1.27;;
33840;SDS011;20142;28.494;-16.312;2023-04-03T09:43:23;8.40;;;1.33;;
33840;SDS011;20142;28.494;-16.312;2023-04-03T09:48:31;10.23;;;1.40;;
33840;SDS011;20142;28.494;-16.312;2023-04-03T09:53:40;7.07;;;1.33;;
33840;SDS011;20142;28.494;-16.312;2023-04-03T09:58:45;10.40;;;1.73;;
33840;SDS011;20142;28.494;-16.312;2023-04-03T10:04:19;13.30;;;1.67;;
33840;SDS011;20142;28.494;-16.312;2023-04-03T10:09:23;9.63;;;1.38;;
33840;SDS011;20142;28.494;-16.312;2023-04-03T10:14:38;11.07;;;1.60;;
33840;SDS011;20142;28.494;-16.312;2023-04-03T10:20:05;10.10;;;1.40;;
33840;SDS011;20142;28.494;-16.312;2023-04-03T10:25:27;6.90;;;1.00;;
33840;SDS011;20142;28.494;-16.312;2023-04-03T10:47:43;13.50;;;2.00;;
33840;SDS011;20142;28.494;-16.312;2023-04-03T10:58:44;13.52;;;2.17;;
33840;SDS011;20142;28.494;-16.312;2023-04-03T11:03:56;10.20;;;1.60;;
33840;SDS011;20142;28.494;-16.312;2023-04-03T11:09:01;15.05;;;2.13;;
33840;SDS011;20142;28.494;-16.312;2023-04-03T11:14:11;10.18;;;1.65;;
33840;SDS011;20142;28.494;-16.312;2023-04-03T11:19:21;9.13;;;1.45;;
33840;SDS011;20142;28.494;-16.312;2023-04-03T11:24:36;15.23;;;1.73;;
33840;SDS011;20142;28.494;-16.312;2023-04-03T11:29:43;10.85;;;1.60;;
33840;SDS011;20142;28.494;-16.312;2023-04-03T11:34:49;10.80;;;1.92;;
33840;SDS011;20142;28.494;-16.312;2023-04-03T11:39:57;9.20;;;1.52;;
33840;SDS011;20142;28.494;-16.312;2023-04-03T12:00:58;11.63;;;1.90;;
33840;SDS011;20142;28.494;-16.312;2023-04-03T12:32:26;15.07;;;1.90;;
33840;SDS011;20142;28.494;-16.312;2023-04-03T12:43:42;16.33;;;2.05;;
33840;SDS011;20142;28.494;-16.312;2023-04-03T12:49:10;14.07;;;2.05;;
33840;SDS011;20142;28.494;-16.312;2023-04-03T12:54:41;16.08;;;1.90;;
33840;SDS011;20142;28.494;-16.312;2023-04-03T12:59:44;10.32;;;1.55;;
33840;SDS011;20142;28.494;-16.312;2023-04-03T13:04:47;13.25;;;1.77;;
33840;SDS011;20142;28.494;-16.312;2023-04-03T13:09:55;11.00;;;1.85;;
33840;SDS011;20142;28.494;-16.312;2023-04-03T13:15:02;9.95;;;1.60;;
33840;SDS011;20142;28.494;-16.312;2023-04-03T13:20:20;21.00;;;2.28;;
33840;SDS011;20142;28.494;-16.312;2023-04-03T13:25:25;13.25;;;1.85;;
33840;SDS011;20142;28.494;-16.312;2023-04-03T13:30:32;16.15;;;1.90;;
33840;SDS011;20142;28.494;-16.312;2023-04-03T13:35:39;12.35;;;1.70;;
33840;SDS011;20142;28.494;-16.312;2023-04-03T13:40:58;15.52;;;2.03;;
33840;SDS011;20142;28.494;-16.312;2023-04-03T13:46:25;9.73;;;1.42;;
33840;SDS011;20142;28.494;-16.312;2023-04-03T13:51:29;12.10;;;1.70;;
33840;SDS011;20142;28.494;-16.312;2023-04-03T13:56:32;13.07;;;2.28;;
33840;SDS011;20142;28.494;-16.312;2023-04-03T14:01:46;8.75;;;1.75;;
33840;SDS011;20142;28.494;-16.312;2023-04-03T14:07:04;7.28;;;1.65;;
33840;SDS011;20142;28.494;-16.312;2023-04-03T14:12:07;11.13;;;2.35;;
33840;SDS011;20142;28.494;-16.312;2023-04-03T14:17:31;9.85;;;1.38;;
33840;SDS011;20142;28.494;-16.312;2023-04-03T14:22:33;13.60;;;1.73;;
33840;SDS011;20142;28.494;-16.312;2023-04-03T14:27:37;12.20;;;1.35;;
33840;SDS011;20142;28.494;-16.312;2023-04-03T14:32:44;14.50;;;1.83;;
33840;SDS011;20142;28.494;-16.312;2023-04-03T14:37:47;12.57;;;1.52;;
33840;SDS011;20142;28.494;-16.312;2023-04-03T14:42:50;14.30;;;2.13;;
33840;SDS011;20142;28.494;-16.312;2023-04-03T14:47:55;8.82;;;1.58;;
33840;SDS011;20142;28.494;-16.312;2023-04-03T14:52:58;7.93;;;1.50;;
33840;SDS011;20142;28.494;-16.312;2023-04-03T14:58:00;10.50;;;1.63;;
33840;SDS011;20142;28.494;-16.312;2023-04-03T15:03:02;11.52;;;2.00;;
33840;SDS011;20142;28.494;-16.312;2023-04-03T15:08:04;10.73;;;1.75;;
33840;SDS011;20142;28.494;-16.312;2023-04-03T15:13:06;13.88;;;2.28;;
33840;SDS011;20142;28.494;-16.312;2023-04-03T15:18:27;10.32;;;1.52;;
33840;SDS011;20142;28.494;-16.312;2023-04-03T15:23:37;6.45;;;1.67;;
33840;SDS011;20142;28.494;-16.312;2023-04-03T15:28:40;8.05;;;1.58;;
33840;SDS011;20142;28.494;-16.312;2023-04-03T15:33:44;12.10;;;2.22;;
33840;SDS011;20142;28.494;-16.312;2023-04-03T15:38:46;11.82;;;1.90;;
33840;SDS011;20142;28.494;-16.312;2023-04-03T15:43:47;11.02;;;1.83;;
33840;SDS011;20142;28.494;-16.312;2023-04-03T15:48:49;6.93;;;1.60;;
33840;SDS011;20142;28.494;-16.312;2023-04-03T15:53:50;9.18;;;1.38;;
33840;SDS011;20142;28.494;-16.312;2023-04-03T15:58:52;12.98;;;1.83;;
33840;SDS011;20142;28.494;-16.312;2023-04-03T16:03:54;9.73;;;1.80;;
33840;SDS011;20142;28.494;-16.312;2023-04-03T16:08:55;7.88;;;1.60;;
33840;SDS011;20142;28.494;-16.312;2023-04-03T16:13:58;6.78;;;1.30;;
33840;SDS011;20142;28.494;-16.312;2023-04-03T16:19:00;13.35;;;2.35;;
33840;SDS011;20142;28.494;-16.312;2023-04-03T16:24:02;8.43;;;1.90;;
33840;SDS011;20142;28.494;-16.312;2023-04-03T16:29:04;10.10;;;1.90;;
33840;SDS011;20142;28.494;-16.312;2023-04-03T16:34:06;8.18;;;1.65;;
33840;SDS011;20142;28.494;-16.312;2023-04-03T16:39:07;8.77;;;1.70;;
33840;SDS011;20142;28.494;-16.312;2023-04-03T16:44:10;10.38;;;2.00;;
33840;SDS011;20142;28.494;-16.312;2023-04-03T16:49:12;10.52;;;1.85;;
33840;SDS011;20142;28.494;-16.312;2023-04-03T16:54:14;10.98;;;1.70;;
33840;SDS011;20142;28.494;-16.312;2023-04-03T16:59:15;13.38;;;2.28;;
33840;SDS011;20142;28.494;-16.312;2023-04-03T17:04:17;11.43;;;1.70;;
33840;SDS011;20142;28.494;-16.312;2023-04-03T17:09:19;16.33;;;2.08;;
33840;SDS011;20142;28.494;-16.312;2023-04-03T17:14:21;12.63;;;1.65;;
33840;SDS011;20142;28.494;-16.312;2023-04-03T17:19:23;12.88;;;1.88;;
33840;SDS011;20142;28.494;-16.312;2023-04-03T17:24:25;13.20;;;1.73;;
33840;SDS011;20142;28.494;-16.312;2023-04-03T17:29:27;10.18;;;2.30;;
33840;SDS011;20142;28.494;-16.312;2023-04-03T17:34:29;14.75;;;2.10;;
33840;SDS011;20142;28.494;-16.312;2023-04-03T17:39:31;14.57;;;2.00;;
33840;SDS011;20142;28.494;-16.312;2023-04-03T17:44:32;15.23;;;2.28;;
33840;SDS011;20142;28.494;-16.312;2023-04-03T17:49:34;21.27;;;2.40;;
33840;SDS011;20142;28.494;-16.312;2023-04-03T17:54:36;14.50;;;2.05;;
33840;SDS011;20142;28.494;-16.312;2023-04-03T17:59:37;17.33;;;2.15;;
33840;SDS011;20142;28.494;-16.312;2023-04-03T18:04:39;9.77;;;1.50;;
33840;SDS011;20142;28.494;-16.312;2023-04-03T18:09:40;18.33;;;2.47;;
33840;SDS011;20142;28.494;-16.312;2023-04-03T18:14:43;18.63;;;2.20;;
33840;SDS011;20142;28.494;-16.312;2023-04-03T18:19:46;13.95;;;2.05;;
33840;SDS011;20142;28.494;-16.312;2023-04-03T18:24:48;14.27;;;1.95;;
33840;SDS011;20142;28.494;-16.312;2023-04-03T18:29:54;19.45;;;2.50;;
33840;SDS011;20142;28.494;-16.312;2023-04-03T18:35:00;18.75;;;1.92;;
33840;SDS011;20142;28.494;-16.312;2023-04-03T18:40:02;16.13;;;2.00;;
33840;SDS011;20142;28.494;-16.312;2023-04-03T18:45:06;26.42;;;2.65;;
33840;SDS011;20142;28.494;-16.312;2023-04-03T18:50:11;14.05;;;2.17;;
